Waterville, Vermont
Current Conditions -  °F | °C
As of 4:28 AM on Thursday 18 Dec 2014 (Local Time) from KMVL Reporting Station
Light Snow Light Snow  
Wind Chill: 29°   Ceiling: 3200
Heat Index: 33°   Visibility: 6mi
Dew Point: 30°   Wind: 5mph
Humidity: 89%   Direction: 40°NE
Pressure: 29.73"   Gusts: NA
Location:  44.69°N, 72.77°W
Report Text: KMVL 180928Z AUTO 04004KT 6SM -SN BR FEW010 SCT023 OVC032 01/M01 A2973 RMK AO2 P0000 T00061011 TSNO
Loading
Personal Weather Stations






























Interactive Weather Map New forecast layout! Learn more

10-Day Weather Forecast

Advertisements
Track Severe Weather on mobile